Time;durP1;ratioP1;P1;durP2;ratioP2;P2;SDS_P1;SDS_P2;PMS_P1;PMS_P2;Temp;Humidity;BMP_temperature;BMP_pressure;BME280_temperature;BME280_humidity;BME280_pressure;Samples;Min_cycle;Max_cycle;Signal;HPM_P1;HPM_P2
2022/09/02 05:14:06;;;;;;;3.83;3.45;;;;;;;;;;6262151;22;20402;-92
2022/09/02 05:21:46;;;;;;;3.15;3.10;;;;;;;;;;6265273;22;20391;-91
2022/09/02 05:29:36;;;;;;;3.10;3.00;;;;;;;;;;6290426;22;20390;-89
2022/09/02 05:35:02;;;;;;;8.80;3.25;;;;;;;;;;6295693;22;20719;-92
2022/09/02 05:42:44;;;;;;;3.40;3.10;;;;;;;;;;6312350;22;20767;-92
2022/09/02 06:02:55;;;;;;;2.70;2.50;;;;;;;;;;6245820;22;20403;-88
2022/09/02 06:08:23;;;;;;;3.20;3.00;;;;;;;;;;6244125;22;20364;-87
2022/09/02 06:10:49;;;;;;;3.20;3.00;;;;;;;;;;6277563;22;20360;-89
2022/09/02 06:13:20;;;;;;;2.90;2.80;;;;;;;;;;6256312;22;20414;-89
2022/09/02 06:15:46;;;;;;;4.82;3.20;;;;;;;;;;6250407;22;20363;-88
2022/09/02 06:18:12;;;;;;;3.38;3.10;;;;;;;;;;6251320;22;20352;-89
2022/09/02 06:20:42;;;;;;;3.35;3.15;;;;;;;;;;6251244;22;20367;-88
2022/09/02 06:23:09;;;;;;;3.20;2.97;;;;;;;;;;6249672;22;20816;-88
2022/09/02 06:25:39;;;;;;;3.40;3.20;;;;;;;;;;6248945;22;20927;-89
2022/09/02 06:28:05;;;;;;;3.08;2.88;;;;;;;;;;6246702;22;20447;-87
2022/09/02 06:30:31;;;;;;;7.10;3.67;;;;;;;;;;6273391;22;20387;-88
2022/09/02 06:32:57;;;;;;;3.33;3.13;;;;;;;;;;6252424;22;20875;-90
2022/09/02 06:35:24;;;;;;;2.97;2.80;;;;;;;;;;6258395;22;21033;-89
2022/09/02 06:46:32;;;;;;;3.10;3.00;;;;;;;;;;6262456;22;20465;-92
2022/09/02 06:49:15;;;;;;;2.65;2.55;;;;;;;;;;6299335;22;20364;-94
2022/09/02 06:57:05;;;;;;;3.30;3.10;;;;;;;;;;6284563;22;20394;-92
2022/09/02 07:02:14;;;;;;;3.03;2.90;;;;;;;;;;6266183;22;20413;-90
2022/09/02 07:10:08;;;;;;;4.43;3.10;;;;;;;;;;6273573;22;20464;-95
2022/09/02 07:12:35;;;;;;;8.02;3.20;;;;;;;;;;6288766;22;20362;-92
2022/09/02 07:20:34;;;;;;;3.28;2.80;;;;;;;;;;6248520;22;20356;-93
2022/09/02 07:23:01;;;;;;;4.57;3.00;;;;;;;;;;6256173;22;20357;-87
2022/09/02 07:25:27;;;;;;;3.57;3.27;;;;;;;;;;6270259;22;20632;-89
2022/09/02 07:27:53;;;;;;;3.95;2.83;;;;;;;;;;6275053;22;20340;-86
2022/09/02 07:30:19;;;;;;;3.50;3.20;;;;;;;;;;6274507;22;20426;-89
2022/09/02 07:32:45;;;;;;;3.10;2.60;;;;;;;;;;6274568;22;20356;-89
2022/09/02 07:35:11;;;;;;;3.40;3.10;;;;;;;;;;6273465;22;20356;-89
2022/09/02 07:37:37;;;;;;;2.83;2.80;;;;;;;;;;6274658;22;20355;-89
2022/09/02 07:40:05;;;;;;;3.03;2.83;;;;;;;;;;6270204;22;20344;-88
2022/09/02 07:42:31;;;;;;;3.20;3.00;;;;;;;;;;6273128;22;20348;-89
2022/09/02 07:44:57;;;;;;;2.93;2.73;;;;;;;;;;6246036;22;20736;-89
2022/09/02 07:47:30;;;;;;;3.70;3.35;;;;;;;;;;6285267;22;20694;-93
2022/09/02 07:49:56;;;;;;;3.00;2.80;;;;;;;;;;6288142;22;20389;-90
2022/09/02 07:52:31;;;;;;;6.18;5.88;;;;;;;;;;6288682;22;20350;-90
2022/09/02 07:55:09;;;;;;;3.40;3.20;;;;;;;;;;6289975;22;20454;-92
2022/09/02 07:57:54;;;;;;;2.70;2.60;;;;;;;;;;6296204;22;20355;-93
2022/09/02 08:00:21;;;;;;;2.90;2.70;;;;;;;;;;6287323;22;20355;-88
2022/09/02 08:02:49;;;;;;;3.55;2.95;;;;;;;;;;6317663;22;20369;-91
2022/09/02 08:10:59;;;;;;;3.10;2.80;;;;;;;;;;6242757;22;20430;-89
2022/09/02 08:13:54;;;;;;;3.17;3.08;;;;;;;;;;6266961;22;20386;-92
2022/09/02 09:58:08;;;;;;;2.00;1.98;;;;;;;;;;6277397;22;20827;-91
2022/09/02 10:11:32;;;;;;;2.40;2.30;;;;;;;;;;6221892;22;20388;-89
2022/09/02 10:13:59;;;;;;;2.20;2.10;;;;;;;;;;6215224;23;20372;-89
2022/09/02 10:16:25;;;;;;;2.22;2.13;;;;;;;;;;6219684;23;20483;-89
2022/09/02 10:18:57;;;;;;;1.98;1.98;;;;;;;;;;6189360;23;20418;-88
2022/09/02 10:21:26;;;;;;;1.95;1.95;;;;;;;;;;6211180;23;20374;-89
2022/09/02 10:24:02;;;;;;;2.15;2.15;;;;;;;;;;6187118;23;20371;-89
2022/09/02 10:26:43;;;;;;;1.90;1.90;;;;;;;;;;6184584;23;20815;-88
2022/09/02 10:29:20;;;;;;;2.30;2.20;;;;;;;;;;6191803;23;20397;-90
2022/09/02 10:31:57;;;;;;;2.35;2.33;;;;;;;;;;6190949;23;20402;-91
2022/09/02 10:34:42;;;;;;;2.50;2.40;;;;;;;;;;6221534;23;20448;-88
2022/09/02 10:37:13;;;;;;;2.30;2.20;;;;;;;;;;6192453;23;20362;-90
2022/09/02 10:39:55;;;;;;;2.00;2.00;;;;;;;;;;6193259;23;20407;-91
2022/09/02 10:42:39;;;;;;;1.88;1.88;;;;;;;;;;6222815;23;20354;-90
2022/09/02 10:45:16;;;;;;;2.40;2.30;;;;;;;;;;6227033;23;20386;-89
2022/09/02 10:47:45;;;;;;;1.80;1.80;;;;;;;;;;6199338;23;20363;-90
2022/09/02 10:50:22;;;;;;;1.83;1.83;;;;;;;;;;6230392;23;20351;-90
2022/09/02 10:53:13;;;;;;;1.95;1.95;;;;;;;;;;6203262;23;20390;-92
2022/09/02 10:55:48;;;;;;;1.70;1.60;;;;;;;;;;6194987;23;20443;-90
2022/09/02 10:58:21;;;;;;;2.13;2.13;;;;;;;;;;6199616;23;20367;-88
2022/09/02 11:00:49;;;;;;;2.40;2.20;;;;;;;;;;6189229;23;20379;-89
2022/09/02 11:03:23;;;;;;;2.67;2.58;;;;;;;;;;6195916;23;20375;-89
2022/09/02 11:05:52;;;;;;;2.47;2.38;;;;;;;;;;6195930;23;20447;-89
2022/09/02 11:08:24;;;;;;;2.72;2.72;;;;;;;;;;6220268;23;20354;-88
2022/09/02 11:10:59;;;;;;;2.40;2.40;;;;;;;;;;6228664;22;20423;-90
2022/09/02 11:13:30;;;;;;;2.10;2.10;;;;;;;;;;6192213;23;20395;-92
2022/09/02 11:16:28;;;;;;;2.30;2.20;;;;;;;;;;6221359;23;20359;-89
2022/09/02 11:19:02;;;;;;;2.25;2.10;;;;;;;;;;6170166;23;20368;-86
2022/09/02 11:21:47;;;;;;;1.90;1.90;;;;;;;;;;6198956;23;20396;-88
2022/09/02 11:24:31;;;;;;;2.30;2.20;;;;;;;;;;6187249;23;20367;-91
2022/09/02 11:27:16;;;;;;;4.28;4.10;;;;;;;;;;6195999;23;20352;-89
2022/09/02 11:30:14;;;;;;;;;;;;;;;;;;;;;
2022/09/02 11:33:04;;;;;;;2.00;2.00;;;;;;;;;;6210773;23;20509;-89
2022/09/02 11:35:41;;;;;;;1.73;1.73;;;;;;;;;;6168604;23;20455;-91
2022/09/02 11:38:24;;;;;;;2.80;2.60;;;;;;;;;;6201904;23;20352;-91
2022/09/02 11:41:06;;;;;;;2.30;2.20;;;;;;;;;;6197825;23;20374;-91
2022/09/02 11:43:51;;;;;;;2.50;2.40;;;;;;;;;;6202459;23;20355;-92
2022/09/02 11:46:38;;;;;;;2.65;2.53;;;;;;;;;;6163516;23;20417;-91
2022/09/02 11:49:31;;;;;;;2.00;1.80;;;;;;;;;;6184465;23;20435;-91
2022/09/02 11:52:18;;;;;;;1.80;1.77;;;;;;;;;;6228639;23;20409;-92
2022/09/02 11:54:49;;;;;;;2.10;2.00;;;;;;;;;;6201898;23;20380;-91
2022/09/02 11:57:25;;;;;;;2.20;2.10;;;;;;;;;;6200159;23;20371;-90
2022/09/02 11:59:52;;;;;;;2.03;2.03;;;;;;;;;;6202550;23;20393;-89
2022/09/02 12:05:40;;;;;;;1.90;1.80;;;;;;;;;;6179326;23;20369;-88
2022/09/02 12:08:45;;;;;;;;;;;;;;;;;;;;;
2022/09/02 12:11:30;;;;;;;6.82;5.30;;;;;;;;;;6246830;23;20397;-88
2022/09/02 12:13:59;;;;;;;2.30;2.20;;;;;;;;;;6253987;23;20893;-90
2022/09/02 12:16:28;;;;;;;2.58;2.38;;;;;;;;;;6227190;23;20397;-92
2022/09/02 12:18:58;;;;;;;1.90;1.80;;;;;;;;;;6254663;23;20353;-90
2022/09/02 12:22:00;;;;;;;2.15;2.05;;;;;;;;;;6256373;23;20358;-89
2022/09/02 12:24:27;;;;;;;1.83;1.73;;;;;;;;;;6227919;23;20372;-89
2022/09/02 12:27:14;;;;;;;1.40;1.40;;;;;;;;;;6232507;23;20362;-90
2022/09/02 12:29:46;;;;;;;1.80;1.70;;;;;;;;;;6257562;23;20354;-91
2022/09/02 12:32:13;;;;;;;1.60;1.60;;;;;;;;;;6229690;23;20365;-89
2022/09/02 12:34:47;;;;;;;1.50;1.50;;;;;;;;;;6228423;23;20381;-89
2022/09/02 12:37:34;;;;;;;2.00;1.40;;;;;;;;;;6224968;23;20421;-90
2022/09/02 12:40:24;;;;;;;1.40;1.40;;;;;;;;;;6227041;23;20360;-89
2022/09/02 12:42:51;;;;;;;1.30;1.30;;;;;;;;;;6256358;23;20806;-89
2022/09/02 12:45:27;;;;;;;21.20;2.70;;;;;;;;;;6225612;23;20354;-88
2022/09/02 12:48:21;;;;;;;1.30;1.30;;;;;;;;;;6219829;22;20353;-90
2022/09/02 12:50:58;;;;;;;1.65;1.65;;;;;;;;;;6252688;23;20338;-90
2022/09/02 12:53:34;;;;;;;1.73;1.73;;;;;;;;;;6227758;23;20405;-90
2022/09/02 12:56:07;;;;;;;1.50;1.50;;;;;;;;;;6228983;23;20360;-91
2022/09/02 12:58:47;;;;;;;1.90;1.80;;;;;;;;;;6234850;23;20359;-91
2022/09/02 13:01:20;;;;;;;1.70;1.60;;;;;;;;;;6227709;23;20417;-88
2022/09/02 13:04:05;;;;;;;1.80;1.80;;;;;;;;;;6263990;23;20434;-88
2022/09/02 13:06:39;;;;;;;1.90;1.80;;;;;;;;;;6234958;23;20349;-88
2022/09/02 13:09:17;;;;;;;1.70;1.70;;;;;;;;;;6235480;23;20821;-89
2022/09/02 13:11:46;;;;;;;3.10;1.45;;;;;;;;;;6230884;23;20377;-89
2022/09/02 13:14:13;;;;;;;1.40;1.40;;;;;;;;;;6230337;23;20374;-89
2022/09/02 13:17:03;;;;;;;1.55;1.55;;;;;;;;;;6224537;23;20374;-89
2022/09/02 13:19:48;;;;;;;1.30;1.30;;;;;;;;;;6223440;23;20438;-91
2022/09/02 13:22:18;;;;;;;1.45;1.45;;;;;;;;;;6223432;23;20350;-89
2022/09/02 13:25:04;;;;;;;1.92;1.92;;;;;;;;;;6252294;23;20408;-90
2022/09/02 13:27:52;;;;;;;2.70;2.60;;;;;;;;;;6148604;23;20342;-88
2022/09/02 13:30:37;;;;;;;2.58;2.13;;;;;;;;;;6222547;23;20359;-92
2022/09/02 13:33:08;;;;;;;1.67;1.67;;;;;;;;;;6223331;23;20370;-91
2022/09/02 13:35:39;;;;;;;1.70;1.70;;;;;;;;;;6225068;23;20370;-89
2022/09/02 13:38:10;;;;;;;1.60;1.60;;;;;;;;;;6230287;23;20358;-90
2022/09/02 13:40:53;;;;;;;1.77;1.77;;;;;;;;;;6230318;23;20418;-93
2022/09/02 13:43:28;;;;;;;4.63;2.05;;;;;;;;;;6231291;23;20353;-91
2022/09/02 13:45:58;;;;;;;2.00;1.70;;;;;;;;;;6230850;23;20412;-91
2022/09/02 13:48:26;;;;;;;2.40;2.20;;;;;;;;;;6256932;22;20338;-92
2022/09/02 13:53:49;;;;;;;1.80;1.80;;;;;;;;;;6259583;23;20405;-92
2022/09/02 13:56:36;;;;;;;2.30;2.30;;;;;;;;;;6256461;23;20352;-93
2022/09/02 13:59:05;;;;;;;2.35;2.25;;;;;;;;;;6230650;23;20362;-89
2022/09/02 14:01:57;;;;;;;1.98;1.77;;;;;;;;;;6228058;23;20334;-90
2022/09/02 14:04:25;;;;;;;2.10;2.10;;;;;;;;;;6260991;23;20356;-93
2022/09/02 14:07:12;;;;;;;1.70;1.63;;;;;;;;;;6239352;23;20166;-89
2022/09/02 14:09:39;;;;;;;1.83;1.83;;;;;;;;;;6210915;22;20417;-92
2022/09/02 14:12:32;;;;;;;2.40;2.27;;;;;;;;;;6254008;22;20440;-94
2022/09/02 14:15:27;;;;;;;2.45;2.45;;;;;;;;;;6262581;22;20403;-94
2022/09/02 14:18:37;;;;;;;2.00;2.00;;;;;;;;;;6261201;22;20462;-93
2022/09/02 14:21:19;;;;;;;2.20;1.60;;;;;;;;;;6192790;23;20373;-93
2022/09/02 14:23:59;;;;;;;5.70;2.30;;;;;;;;;;6257723;22;20371;-92
2022/09/02 14:26:37;;;;;;;2.20;2.00;;;;;;;;;;6287543;22;20391;-91
2022/09/02 14:29:07;;;;;;;2.17;2.07;;;;;;;;;;6264846;22;20496;-91
2022/09/02 14:31:36;;;;;;;2.30;2.10;;;;;;;;;;6253763;22;20348;-93
2022/09/02 14:34:05;;;;;;;1.73;1.67;;;;;;;;;;6259629;22;20459;-92
2022/09/02 14:36:35;;;;;;;3.20;3.10;;;;;;;;;;6258663;22;20377;-90
2022/09/02 14:39:26;;;;;;;2.50;2.30;;;;;;;;;;6262311;22;20360;-92
2022/09/02 14:41:54;;;;;;;8.50;7.60;;;;;;;;;;6291259;22;20341;-91
2022/09/02 14:44:31;;;;;;;2.20;2.10;;;;;;;;;;6267227;22;20971;-87
2022/09/02 14:49:59;;;;;;;2.17;1.98;;;;;;;;;;6269196;22;20388;-93
2022/09/02 14:52:51;;;;;;;1.70;1.70;;;;;;;;;;6235743;23;20362;-94
2022/09/02 14:58:03;;;;;;;4.90;2.30;;;;;;;;;;6286415;22;20392;-92
2022/09/02 15:00:31;;;;;;;2.10;2.00;;;;;;;;;;6255484;22;20374;-89
2022/09/02 15:03:16;;;;;;;2.50;2.40;;;;;;;;;;6260399;22;20364;-89
2022/09/02 15:05:43;;;;;;;2.10;2.10;;;;;;;;;;6262255;22;20646;-90
2022/09/02 15:08:09;;;;;;;2.65;2.55;;;;;;;;;;6258712;22;20368;-90
2022/09/02 15:10:37;;;;;;;2.40;2.25;;;;;;;;;;6285660;22;20352;-91
2022/09/02 15:13:03;;;;;;;2.40;2.30;;;;;;;;;;6253999;22;20460;-90
2022/09/02 15:15:29;;;;;;;2.60;2.50;;;;;;;;;;6258285;22;20681;-92
2022/09/02 15:17:55;;;;;;;2.40;2.20;;;;;;;;;;6252107;22;20420;-90
2022/09/02 15:20:24;;;;;;;2.15;2.10;;;;;;;;;;6282058;22;20375;-90
2022/09/02 15:22:52;;;;;;;2.30;2.20;;;;;;;;;;6252173;22;20444;-92
2022/09/02 15:25:18;;;;;;;1.80;1.80;;;;;;;;;;6252566;22;20364;-92
2022/09/02 15:27:46;;;;;;;2.30;2.20;;;;;;;;;;6254480;22;20363;-91
2022/09/02 15:30:13;;;;;;;2.00;2.00;;;;;;;;;;6254104;22;20375;-91
2022/09/02 15:32:39;;;;;;;2.28;2.17;;;;;;;;;;6254581;22;20348;-90
2022/09/02 15:35:06;;;;;;;2.20;2.20;;;;;;;;;;6265274;22;20388;-92
2022/09/02 15:37:36;;;;;;;2.40;2.20;;;;;;;;;;6290444;22;20379;-93
2022/09/02 15:40:05;;;;;;;2.28;2.17;;;;;;;;;;6260108;22;20694;-92
2022/09/02 15:42:35;;;;;;;2.60;2.20;;;;;;;;;;6255675;22;20374;-91
2022/09/02 15:45:01;;;;;;;2.20;2.10;;;;;;;;;;6257906;22;20410;-91
2022/09/02 15:47:29;;;;;;;2.30;2.20;;;;;;;;;;6262189;22;20365;-89
2022/09/02 15:49:56;;;;;;;2.60;2.60;;;;;;;;;;6314403;22;20381;-93
2022/09/02 15:52:23;;;;;;;2.88;2.78;;;;;;;;;;6313736;22;20334;-91
2022/09/02 15:54:49;;;;;;;2.28;2.08;;;;;;;;;;6288445;22;20378;-92
2022/09/02 15:57:15;;;;;;;3.00;2.28;;;;;;;;;;6291776;22;20398;-90
2022/09/02 15:59:58;;;;;;;;;;;;;;;;;;;;;
2022/09/02 16:02:37;;;;;;;2.60;2.50;;;;;;;;;;6325069;22;20383;-91
2022/09/02 16:07:38;;;;;;;2.70;2.60;;;;;;;;;;6225277;23;20462;-92
2022/09/02 16:10:04;;;;;;;2.42;2.40;;;;;;;;;;6199368;23;20367;-89
2022/09/02 16:12:31;;;;;;;2.30;2.20;;;;;;;;;;6198228;23;20446;-88
2022/09/02 16:14:58;;;;;;;3.53;3.38;;;;;;;;;;6193134;23;20395;-89
2022/09/02 16:17:24;;;;;;;3.05;2.85;;;;;;;;;;6218151;23;20356;-89
2022/09/02 16:19:53;;;;;;;2.55;2.55;;;;;;;;;;6222471;23;20438;-90
2022/09/02 16:22:19;;;;;;;2.58;2.47;;;;;;;;;;6195959;23;20368;-88
2022/09/02 16:24:50;;;;;;;2.50;2.50;;;;;;;;;;6195087;23;20454;-88
2022/09/02 16:30:13;;;;;;;3.10;2.80;;;;;;;;;;6221374;23;20359;-90
2022/09/02 16:32:39;;;;;;;3.00;2.50;;;;;;;;;;6193448;23;20374;-90
2022/09/02 16:35:08;;;;;;;2.13;2.03;;;;;;;;;;6224975;23;20391;-92
2022/09/02 16:37:34;;;;;;;4.10;3.90;;;;;;;;;;6193764;23;20355;-92
2022/09/02 16:40:06;;;;;;;4.73;2.90;;;;;;;;;;6218098;23;20363;-92
2022/09/02 16:42:33;;;;;;;2.70;2.60;;;;;;;;;;6196465;22;20497;-89
2022/09/02 16:45:06;;;;;;;2.83;2.72;;;;;;;;;;6219828;23;20757;-91
2022/09/02 16:47:36;;;;;;;2.10;2.00;;;;;;;;;;6248732;23;20390;-91
2022/09/02 16:50:02;;;;;;;2.33;2.22;;;;;;;;;;6222629;23;20369;-90
2022/09/02 16:52:31;;;;;;;2.67;2.33;;;;;;;;;;6223444;23;20389;-90
2022/09/02 16:55:00;;;;;;;2.10;2.10;;;;;;;;;;6229945;23;20726;-90
2022/09/02 16:57:32;;;;;;;2.22;2.22;;;;;;;;;;6256769;23;20349;-90
2022/09/02 17:00:29;;;;;;;2.22;2.20;;;;;;;;;;6227198;23;20414;-93
2022/09/02 17:03:05;;;;;;;2.40;2.30;;;;;;;;;;6253556;23;20421;-90
2022/09/02 17:05:34;;;;;;;2.50;2.40;;;;;;;;;;6228635;23;20699;-87
2022/09/02 17:08:03;;;;;;;3.67;3.43;;;;;;;;;;6229542;23;20174;-92
2022/09/02 17:10:30;;;;;;;2.60;2.60;;;;;;;;;;6227244;23;20385;-91
2022/09/02 17:12:56;;;;;;;2.40;2.30;;;;;;;;;;6225090;23;20389;-90
2022/09/02 17:15:29;;;;;;;2.13;2.13;;;;;;;;;;6231386;23;20382;-93
2022/09/02 17:18:08;;;;;;;3.80;2.30;;;;;;;;;;6229102;23;20449;-93
2022/09/02 17:20:39;;;;;;;2.23;2.10;;;;;;;;;;6231100;23;20769;-94
2022/09/02 17:23:07;;;;;;;3.63;2.63;;;;;;;;;;6228830;23;20393;-90
2022/09/02 17:25:39;;;;;;;2.30;2.30;;;;;;;;;;6229068;23;20392;-91
2022/09/02 17:28:25;;;;;;;3.40;3.20;;;;;;;;;;6252851;23;20392;-92
2022/09/02 17:30:52;;;;;;;8.23;3.60;;;;;;;;;;6226028;23;20381;-93
2022/09/02 17:33:27;;;;;;;2.50;2.40;;;;;;;;;;6229484;23;20424;-94
2022/09/02 17:35:59;;;;;;;2.20;2.07;;;;;;;;;;6238554;23;20385;-92
2022/09/02 17:44:01;;;;;;;5.63;2.73;;;;;;;;;;6263328;22;20389;-94
2022/09/02 17:46:57;;;;;;;2.70;2.50;;;;;;;;;;6265641;22;20444;-94
2022/09/02 17:49:23;;;;;;;3.07;2.80;;;;;;;;;;6286722;22;20491;-93
2022/09/02 17:52:06;;;;;;;2.87;2.77;;;;;;;;;;6297816;22;20395;-93
2022/09/02 17:57:29;;;;;;;;;;;;;;;;;;;;;
2022/09/02 18:00:10;;;;;;;2.70;2.60;;;;;;;;;;6325335;22;20467;-89
2022/09/02 18:02:55;;;;;;;8.43;3.20;;;;;;;;;;6299859;22;20877;-90
2022/09/02 18:05:50;;;;;;;3.03;2.93;;;;;;;;;;6327609;22;20407;-91
2022/09/02 18:14:51;;;;;;;3.07;2.83;;;;;;;;;;6318199;22;20473;-91
2022/09/02 18:20:37;;;;;;;2.90;2.90;;;;;;;;;;6279578;22;20448;-92
2022/09/02 18:26:29;;;;;;;3.77;3.57;;;;;;;;;;6257815;22;20440;-90
2022/09/02 18:29:16;;;;;;;3.30;3.20;;;;;;;;;;6237640;22;20385;-90
2022/09/02 18:32:10;;;;;;;2.83;2.77;;;;;;;;;;6240341;23;20385;-91
2022/09/02 18:35:14;;;;;;;3.30;3.20;;;;;;;;;;6232481;23;20433;-93
2022/09/02 18:38:12;;;;;;;4.10;3.13;;;;;;;;;;6183918;23;20498;-93
2022/09/02 18:41:01;;;;;;;4.47;4.27;;;;;;;;;;6228071;23;20506;-93
2022/09/02 18:44:06;;;;;;;;;;;;;;;;;;;;;
2022/09/02 18:46:51;;;;;;;3.23;2.90;;;;;;;;;;6257671;23;20416;-93
2022/09/02 18:49:19;;;;;;;3.40;3.40;;;;;;;;;;6247041;22;20446;-91
2022/09/02 18:52:25;;;;;;;3.67;3.33;;;;;;;;;;6259925;22;20401;-96
2022/09/02 19:00:11;;;;;;;3.67;3.57;;;;;;;;;;6269214;22;20447;-91
2022/09/02 19:02:50;;;;;;;3.60;3.50;;;;;;;;;;6249204;22;20415;-93
2022/09/02 19:05:34;;;;;;;3.77;3.57;;;;;;;;;;6261453;22;20918;-91
2022/09/02 19:11:13;;;;;;;4.13;3.70;;;;;;;;;;6266932;22;20459;-91
2022/09/02 19:17:31;;;;;;;4.13;3.93;;;;;;;;;;6187905;22;20411;-92
2022/09/02 19:22:49;;;;;;;4.10;3.70;;;;;;;;;;6256387;22;20441;-91
2022/09/02 19:25:33;;;;;;;4.40;4.00;;;;;;;;;;6253499;22;20371;-89
2022/09/02 19:28:01;;;;;;;4.10;3.70;;;;;;;;;;6262950;22;20514;-91
2022/09/02 19:30:39;;;;;;;3.95;3.65;;;;;;;;;;6281177;22;20348;-91
2022/09/02 19:33:15;;;;;;;4.30;4.00;;;;;;;;;;6252116;22;20360;-90
2022/09/02 19:38:33;;;;;;;4.50;4.10;;;;;;;;;;6265232;22;20402;-91
2022/09/02 19:41:18;;;;;;;4.20;4.10;;;;;;;;;;6253154;23;20369;-92
2022/09/02 19:43:52;;;;;;;4.90;4.50;;;;;;;;;;6249339;23;20350;-92
2022/09/02 19:46:24;;;;;;;5.07;4.68;;;;;;;;;;6228369;23;20381;-90
2022/09/02 19:48:53;;;;;;;4.20;4.10;;;;;;;;;;6241096;22;20360;-91
2022/09/02 19:51:23;;;;;;;4.10;3.85;;;;;;;;;;6264704;22;20376;-92
2022/09/02 19:53:51;;;;;;;4.50;4.30;;;;;;;;;;6257605;22;20356;-90
2022/09/02 19:56:19;;;;;;;4.65;4.45;;;;;;;;;;6252909;22;20375;-90
2022/09/02 19:58:52;;;;;;;4.80;4.05;;;;;;;;;;6272834;22;20358;-90
2022/09/02 20:01:58;;;;;;;4.30;4.10;;;;;;;;;;6265578;22;20771;-89
2022/09/02 20:04:23;;;;;;;6.40;4.70;;;;;;;;;;6274639;22;20427;-92
2022/09/02 20:06:50;;;;;;;4.50;4.30;;;;;;;;;;6250276;22;20447;-90
2022/09/02 20:09:24;;;;;;;5.03;4.63;;;;;;;;;;6249594;22;20356;-89
2022/09/02 20:11:59;;;;;;;3.97;3.90;;;;;;;;;;6263461;22;20153;-91
2022/09/02 20:14:44;;;;;;;4.30;4.10;;;;;;;;;;6270598;22;20416;-91
2022/09/02 20:17:36;;;;;;;4.17;3.90;;;;;;;;;;6262753;22;20393;-92
2022/09/02 20:36:51;;;;;;;4.90;4.70;;;;;;;;;;6246819;22;20480;-92
2022/09/02 21:09:53;;;;;;;4.50;4.10;;;;;;;;;;6256854;22;20404;-91
2022/09/02 21:15:50;;;;;;;3.60;3.40;;;;;;;;;;6259355;22;20392;-93
